Time;durP1;ratioP1;P1;durP2;ratioP2;P2;SDS_P1;SDS_P2;PMS_P1;PMS_P2;Temp;Humidity;BMP_temperature;BMP_pressure;BME280_temperature;BME280_humidity;BME280_pressure;Samples;Min_cycle;Max_cycle;Signal;HPM_P1;HPM_P2
2022/05/02 00:00:34;;;;;;;6.43;4.97;;;7.50;99.90;;;;;;5018036;28;20030;-75
2022/05/02 00:02:59;;;;;;;6.20;5.07;;;7.50;99.90;;;;;;5009040;28;20103;-75
2022/05/02 00:05:26;;;;;;;6.72;4.75;;;7.40;99.90;;;;;;5022980;28;20060;-75
2022/05/02 00:07:52;;;;;;;8.10;4.55;;;7.40;99.90;;;;;;5017156;28;20037;-75
2022/05/02 00:10:18;;;;;;;6.63;5.20;;;7.40;99.90;;;;;;5009411;28;20041;-75
2022/05/02 00:12:43;;;;;;;6.10;5.13;;;7.40;99.90;;;;;;5016799;28;20394;-75
2022/05/02 00:15:10;;;;;;;8.45;5.80;;;7.40;99.90;;;;;;5015879;28;20033;-75
2022/05/02 00:20:20;;;;;;;7.53;5.28;;;7.30;99.90;;;;;;5017223;28;20033;-75
2022/05/02 00:22:45;;;;;;;5.65;4.43;;;7.40;99.90;;;;;;5017584;28;20030;-75
2022/05/02 00:25:11;;;;;;;5.40;4.50;;;7.30;99.90;;;;;;5017265;28;20112;-75
2022/05/02 00:27:41;;;;;;;8.82;5.20;;;7.30;99.90;;;;;;5018729;28;20053;-75
2022/05/02 00:30:08;;;;;;;7.32;4.85;;;7.40;99.90;;;;;;5016952;28;20505;-75
2022/05/02 00:32:34;;;;;;;5.65;4.43;;;7.30;99.90;;;;;;5019618;28;20045;-75
2022/05/02 00:35:00;;;;;;;6.68;4.72;;;7.30;99.90;;;;;;5018305;28;20029;-75
2022/05/02 00:37:26;;;;;;;6.57;4.03;;;7.30;99.90;;;;;;5021382;28;20116;-76
2022/05/02 00:39:52;;;;;;;7.43;5.30;;;7.30;99.90;;;;;;5019317;28;20040;-75
2022/05/02 00:42:20;;;;;;;6.40;4.55;;;7.40;99.90;;;;;;5003283;28;20471;-75
2022/05/02 00:44:45;;;;;;;5.00;3.67;;;7.40;99.90;;;;;;5014804;28;20037;-75
2022/05/02 00:47:15;;;;;;;6.13;4.53;;;7.30;99.90;;;;;;5019113;28;20115;-75
2022/05/02 00:49:42;;;;;;;7.13;4.97;;;7.30;99.90;;;;;;5000933;28;20516;-75
2022/05/02 00:52:08;;;;;;;6.38;4.55;;;7.40;99.90;;;;;;5002304;28;20060;-75
2022/05/02 00:54:37;;;;;;;4.85;3.65;;;7.30;99.90;;;;;;5012523;28;20055;-75
2022/05/02 00:57:06;;;;;;;6.72;4.40;;;7.30;99.90;;;;;;5019043;28;20587;-75
2022/05/02 00:59:35;;;;;;;6.97;5.78;;;7.30;99.90;;;;;;5015493;28;20562;-76
2022/05/02 01:02:01;;;;;;;7.05;5.07;;;7.30;99.90;;;;;;5011651;28;20385;-75
2022/05/02 01:04:26;;;;;;;6.88;5.18;;;7.20;99.90;;;;;;5004245;28;20170;-75
2022/05/02 01:07:11;;;;;;;6.85;5.10;;;7.20;99.90;;;;;;5020105;28;20033;-75
2022/05/02 01:09:44;;;;;;;5.85;4.28;;;7.20;99.90;;;;;;5002509;28;20104;-76
2022/05/02 01:12:12;;;;;;;7.18;4.55;;;7.20;99.90;;;;;;5017905;28;20072;-75
2022/05/02 01:14:38;;;;;;;5.70;4.63;;;7.10;99.90;;;;;;5020673;28;20040;-75
2022/05/02 01:17:04;;;;;;;7.10;5.70;;;7.20;99.90;;;;;;5019542;28;20038;-75
2022/05/02 01:19:30;;;;;;;6.47;4.60;;;7.20;99.90;;;;;;5012185;28;20120;-75
2022/05/02 01:21:57;;;;;;;6.93;4.30;;;7.10;99.90;;;;;;5018379;28;20116;-75
2022/05/02 01:24:35;;;;;;;7.00;5.55;;;7.10;99.90;;;;;;5020220;28;20061;-76
2022/05/02 01:27:01;;;;;;;8.23;5.13;;;7.20;99.90;;;;;;5011894;28;20139;-75
2022/05/02 01:29:26;;;;;;;6.82;5.05;;;7.10;99.90;;;;;;5017905;28;20191;-75
2022/05/02 01:31:54;;;;;;;5.90;3.70;;;7.10;99.90;;;;;;5017693;28;20463;-75
2022/05/02 01:34:20;;;;;;;5.95;3.58;;;7.00;99.90;;;;;;5035363;28;20072;-75
2022/05/02 01:36:45;;;;;;;5.18;3.85;;;7.00;99.90;;;;;;5019729;28;20060;-74
2022/05/02 01:39:11;;;;;;;5.30;3.90;;;7.10;99.90;;;;;;5018597;28;20555;-75
2022/05/02 01:41:37;;;;;;;5.13;4.07;;;7.00;99.90;;;;;;5013935;28;20064;-76
2022/05/02 01:44:02;;;;;;;6.13;4.45;;;7.00;99.90;;;;;;5018071;28;20031;-75
2022/05/02 01:46:28;;;;;;;4.53;3.78;;;6.90;99.90;;;;;;5019609;28;20025;-75
2022/05/02 01:48:55;;;;;;;5.90;3.90;;;6.90;99.90;;;;;;5002971;28;20052;-75
2022/05/02 01:51:21;;;;;;;5.20;4.45;;;6.80;99.90;;;;;;5011362;28;20128;-75
2022/05/02 01:53:47;;;;;;;6.88;4.30;;;6.80;99.90;;;;;;5019615;28;20051;-75
2022/05/02 01:56:12;;;;;;;8.25;4.03;;;6.80;99.90;;;;;;4999582;28;20172;-76
2022/05/02 01:58:38;;;;;;;4.75;3.80;;;6.70;99.90;;;;;;5017892;28;20041;-75
2022/05/02 02:01:03;;;;;;;5.25;3.90;;;6.70;99.90;;;;;;5019384;28;20446;-75
2022/05/02 02:03:29;;;;;;;5.10;3.65;;;6.60;99.90;;;;;;5017908;28;20037;-75
2022/05/02 02:05:55;;;;;;;4.80;4.30;;;6.50;99.90;;;;;;5001037;28;20031;-75
2022/05/02 02:08:29;;;;;;;5.82;4.20;;;6.50;99.90;;;;;;5001690;28;20146;-75
2022/05/02 02:11:00;;;;;;;4.47;3.55;;;6.50;99.90;;;;;;4994267;28;20041;-75
2022/05/02 02:13:26;;;;;;;5.70;4.43;;;6.50;99.90;;;;;;5019105;28;20052;-75
2022/05/02 02:15:52;;;;;;;5.53;3.95;;;6.50;99.90;;;;;;5017093;28;20025;-75
2022/05/02 02:18:18;;;;;;;5.47;3.92;;;6.40;99.90;;;;;;5006523;28;20454;-75
2022/05/02 02:20:45;;;;;;;8.25;4.63;;;6.40;99.90;;;;;;5019412;28;20144;-75
2022/05/02 02:23:13;;;;;;;4.82;4.22;;;6.50;99.90;;;;;;5010883;28;20608;-75
2022/05/02 02:25:38;;;;;;;5.05;4.10;;;6.40;99.90;;;;;;5019381;28;20022;-75
2022/05/02 02:28:05;;;;;;;5.70;4.22;;;6.40;99.90;;;;;;5010977;28;20497;-74
2022/05/02 02:30:30;;;;;;;6.88;4.53;;;6.30;99.90;;;;;;5017787;28;20371;-75
2022/05/02 02:33:00;;;;;;;5.50;4.50;;;6.30;99.90;;;;;;5017771;28;20038;-75
2022/05/02 02:35:26;;;;;;;6.65;4.60;;;6.20;99.90;;;;;;5011221;28;21913;-75
2022/05/02 02:37:52;;;;;;;5.93;3.97;;;6.30;99.90;;;;;;5026238;28;20393;-75
2022/05/02 02:40:18;;;;;;;4.88;3.75;;;6.20;99.90;;;;;;5018036;28;20055;-75
2022/05/02 02:42:44;;;;;;;5.13;4.25;;;6.30;99.90;;;;;;5010632;28;20124;-75
2022/05/02 02:45:10;;;;;;;6.50;4.80;;;6.20;99.90;;;;;;5014989;28;20167;-75
2022/05/02 02:47:36;;;;;;;4.97;4.10;;;6.20;99.90;;;;;;5010236;28;20152;-75
2022/05/02 02:50:02;;;;;;;6.57;4.32;;;6.10;99.90;;;;;;5018335;28;20389;-75
2022/05/02 02:52:28;;;;;;;6.35;4.30;;;6.10;99.90;;;;;;4994110;28;20509;-75
2022/05/02 02:54:54;;;;;;;7.40;4.88;;;6.10;99.90;;;;;;5016776;28;20133;-75
2022/05/02 02:57:19;;;;;;;5.80;4.50;;;6.00;99.90;;;;;;5017219;28;20047;-75
2022/05/02 02:59:45;;;;;;;5.03;3.78;;;6.00;99.90;;;;;;4983817;28;20367;-75
2022/05/02 03:02:11;;;;;;;8.20;5.05;;;6.00;99.90;;;;;;5015720;28;20059;-75
2022/05/02 03:07:24;;;;;;;6.88;4.85;;;5.90;99.90;;;;;;5009486;28;20499;-75
2022/05/02 03:09:50;;;;;;;5.85;4.03;;;5.80;99.90;;;;;;5009727;28;20038;-75
2022/05/02 03:12:16;;;;;;;9.35;4.18;;;5.80;99.90;;;;;;5018184;28;20061;-75
2022/05/02 03:14:41;;;;;;;5.32;4.32;;;5.80;99.90;;;;;;4983570;28;20029;-75
2022/05/02 03:17:07;;;;;;;7.72;5.18;;;5.80;99.90;;;;;;5017768;28;20052;-75
2022/05/02 03:19:32;;;;;;;5.22;4.53;;;5.60;99.90;;;;;;5017947;28;20469;-75
2022/05/02 03:21:58;;;;;;;5.05;4.10;;;5.60;99.90;;;;;;5015695;28;20029;-75
2022/05/02 03:24:24;;;;;;;6.65;5.13;;;5.50;99.90;;;;;;5001042;28;20033;-75
2022/05/02 03:26:49;;;;;;;6.47;4.55;;;5.40;99.90;;;;;;5016148;28;20064;-74
2022/05/02 03:29:15;;;;;;;8.45;5.53;;;5.50;99.90;;;;;;5017435;28;20026;-75
2022/05/02 03:31:40;;;;;;;5.93;4.47;;;5.40;99.90;;;;;;5016668;28;20383;-75
2022/05/02 03:34:06;;;;;;;5.07;3.25;;;5.40;99.90;;;;;;5009321;28;20034;-75
2022/05/02 03:36:32;;;;;;;6.07;4.63;;;5.40;99.90;;;;;;5009906;28;20096;-75
2022/05/02 03:38:57;;;;;;;7.40;4.75;;;5.40;99.90;;;;;;5017353;28;20505;-74
2022/05/02 03:41:23;;;;;;;6.95;4.63;;;5.40;99.90;;;;;;5009898;28;20033;-75
2022/05/02 03:43:48;;;;;;;7.95;5.03;;;5.30;99.90;;;;;;5026188;28;20025;-74
2022/05/02 03:46:14;;;;;;;5.85;4.03;;;5.30;99.90;;;;;;5010641;28;20037;-74
2022/05/02 03:48:39;;;;;;;6.50;4.70;;;5.30;99.90;;;;;;5009510;28;20064;-75
2022/05/02 03:51:05;;;;;;;8.20;4.80;;;5.20;99.90;;;;;;4991499;28;20045;-75
2022/05/02 03:53:31;;;;;;;5.78;4.47;;;5.20;99.90;;;;;;5016125;28;20474;-75
2022/05/02 03:55:56;;;;;;;5.63;4.63;;;5.20;99.90;;;;;;4999630;28;20447;-75
2022/05/02 03:58:22;;;;;;;7.07;4.93;;;5.20;99.90;;;;;;5013743;28;20018;-74
2022/05/02 04:00:48;;;;;;;6.47;4.32;;;5.20;99.90;;;;;;5016206;28;20036;-75
2022/05/02 04:03:14;;;;;;;6.40;4.90;;;5.10;99.90;;;;;;5013294;28;20057;-76
2022/05/02 04:05:40;;;;;;;6.03;4.50;;;5.00;99.90;;;;;;5004101;28;20219;-76
2022/05/02 04:08:06;;;;;;;6.43;4.72;;;5.00;99.90;;;;;;5020920;28;20041;-76
2022/05/02 04:10:31;;;;;;;6.20;4.38;;;5.00;99.90;;;;;;5003302;28;20033;-76
2022/05/02 04:12:57;;;;;;;4.53;3.75;;;5.00;99.90;;;;;;5012784;28;20463;-76
2022/05/02 04:15:23;;;;;;;5.88;4.15;;;5.00;99.90;;;;;;5019748;28;20432;-76
2022/05/02 04:17:48;;;;;;;5.78;4.65;;;4.90;99.90;;;;;;5013452;28;20040;-76
2022/05/02 04:20:14;;;;;;;7.60;4.40;;;4.90;99.90;;;;;;5021298;28;20049;-76
2022/05/02 04:22:41;;;;;;;6.72;4.75;;;4.90;99.90;;;;;;5003846;28;20021;-76
2022/05/02 04:25:07;;;;;;;9.50;5.10;;;5.00;99.90;;;;;;5019193;28;20025;-76
2022/05/02 04:27:34;;;;;;;5.78;4.32;;;5.00;99.90;;;;;;5013002;28;20497;-76
2022/05/02 04:29:59;;;;;;;7.35;5.15;;;5.00;99.90;;;;;;5019453;28;20036;-76
2022/05/02 04:32:25;;;;;;;7.28;4.65;;;5.00;99.90;;;;;;5002728;28;20408;-76
2022/05/02 04:34:54;;;;;;;6.03;4.47;;;5.00;99.90;;;;;;5002000;28;20029;-76
2022/05/02 04:37:19;;;;;;;6.10;4.55;;;5.00;99.90;;;;;;5018953;28;20124;-76
2022/05/02 04:39:45;;;;;;;5.22;4.47;;;4.90;99.90;;;;;;5020352;28;20021;-76
2022/05/02 04:42:10;;;;;;;9.55;5.25;;;5.00;99.90;;;;;;5001749;28;20359;-75
2022/05/02 04:44:36;;;;;;;5.70;3.78;;;5.10;99.90;;;;;;5018997;28;20025;-76
2022/05/02 04:47:02;;;;;;;5.82;4.32;;;5.10;99.90;;;;;;5019278;28;20040;-76
2022/05/02 04:49:28;;;;;;;5.82;3.90;;;5.10;99.90;;;;;;5012253;28;20033;-76
2022/05/02 04:51:54;;;;;;;7.55;4.63;;;5.10;99.90;;;;;;5018316;28;20386;-76
2022/05/02 04:54:19;;;;;;;6.40;4.50;;;5.20;99.90;;;;;;5012450;28;20042;-76
2022/05/02 04:56:45;;;;;;;5.88;4.35;;;5.30;99.90;;;;;;5011524;28;20045;-76
2022/05/02 04:59:10;;;;;;;8.43;5.40;;;5.30;99.90;;;;;;5012869;28;20038;-76
2022/05/02 05:01:36;;;;;;;7.53;4.95;;;5.30;99.90;;;;;;5013087;28;20041;-76
2022/05/02 05:04:01;;;;;;;9.10;4.97;;;5.40;99.90;;;;;;5020072;28;20124;-76
2022/05/02 05:06:27;;;;;;;5.55;4.35;;;5.40;99.90;;;;;;5019342;28;20068;-76
2022/05/02 05:08:53;;;;;;;4.70;4.15;;;5.40;99.90;;;;;;5001946;28;20091;-76
2022/05/02 05:11:27;;;;;;;6.28;4.30;;;5.40;99.90;;;;;;5001965;28;20041;-76
2022/05/02 05:17:30;;;;;;;4.22;3.05;;;5.50;99.90;;;;;;5031195;28;20245;-77
2022/05/02 05:20:34;;;;;;;7.63;5.32;;;5.70;99.90;;;;;;5011470;28;20033;-76
2022/05/02 05:23:15;;;;;;;7.88;5.53;;;5.70;99.90;;;;;;5011785;28;20406;-76
2022/05/02 05:26:29;;;;;;;9.30;6.05;;;5.80;99.90;;;;;;5028674;28;20021;-76
2022/05/02 05:29:33;;;;;;;6.35;4.47;;;5.90;99.90;;;;;;5016918;28;20056;-76
2022/05/02 05:32:46;;;;;;;6.20;4.43;;;6.00;99.90;;;;;;5022702;28;20053;-77
2022/05/02 05:35:36;;;;;;;6.32;4.78;;;6.00;99.90;;;;;;5004192;28;20535;-76
2022/05/02 05:38:06;;;;;;;5.65;4.45;;;6.10;99.90;;;;;;5002446;28;20304;-76
2022/05/02 05:40:37;;;;;;;7.65;4.85;;;6.20;99.90;;;;;;5000459;28;20277;-76
2022/05/02 05:43:04;;;;;;;5.03;4.10;;;6.30;99.90;;;;;;5004340;28;20053;-77
2022/05/02 05:46:10;;;;;;;6.30;4.82;;;6.40;99.90;;;;;;4982328;28;20554;-76
2022/05/02 05:48:51;;;;;;;5.68;4.03;;;6.40;99.90;;;;;;4990954;28;20032;-77
2022/05/02 05:51:34;;;;;;;6.55;4.47;;;6.60;99.90;;;;;;5021744;28;20037;-76
2022/05/02 05:54:29;;;;;;;5.57;4.10;;;6.70;99.90;;;;;;4999209;28;20200;-77
2022/05/02 05:57:11;;;;;;;8.38;5.22;;;6.80;99.90;;;;;;4932928;28;20145;-77
2022/05/02 06:00:09;;;;;;;12.52;8.13;;;6.90;99.90;;;;;;4956846;28;20049;-77
2022/05/02 06:02:52;;;;;;;7.07;3.97;;;7.00;99.90;;;;;;4955513;28;20045;-76
2022/05/02 06:05:17;;;;;;;8.70;5.88;;;7.20;99.90;;;;;;4957840;28;20475;-76
2022/05/02 06:07:46;;;;;;;10.85;7.35;;;7.40;99.90;;;;;;4941038;28;20039;-76
2022/05/02 06:10:14;;;;;;;10.07;7.30;;;7.50;99.90;;;;;;4954874;28;20058;-76
2022/05/02 06:12:42;;;;;;;9.27;7.38;;;7.60;99.90;;;;;;4949616;28;20078;-77
2022/05/02 06:20:43;;;;;;;9.88;6.25;;;8.20;99.90;;;;;;4934736;28;20095;-76
2022/05/02 06:23:14;;;;;;;11.05;7.95;;;8.40;99.90;;;;;;4935379;28;20037;-77
2022/05/02 06:25:41;;;;;;;12.48;9.00;;;8.40;99.90;;;;;;4950117;28;20063;-76
2022/05/02 06:28:08;;;;;;;10.77;6.93;;;8.60;99.90;;;;;;4940184;28;20073;-76
2022/05/02 06:30:38;;;;;;;10.40;8.10;;;8.90;99.90;;;;;;4934443;28;20035;-77
2022/05/02 06:33:13;;;;;;;11.50;8.98;;;8.90;99.90;;;;;;4965735;28;20121;-76
2022/05/02 06:35:56;;;;;;;8.45;6.95;;;9.10;99.90;;;;;;5032090;28;20030;-76
2022/05/02 06:38:50;;;;;;;12.20;8.63;;;9.30;99.90;;;;;;4990125;28;20029;-76
2022/05/02 06:41:20;;;;;;;9.25;7.75;;;9.50;99.90;;;;;;5014677;28;20091;-76
2022/05/02 06:44:04;;;;;;;13.23;8.65;;;9.70;99.90;;;;;;5031174;28;20033;-76
2022/05/02 06:46:44;;;;;;;10.73;7.80;;;9.90;99.90;;;;;;5031626;28;20037;-77
2022/05/02 06:49:12;;;;;;;10.13;8.57;;;10.00;99.90;;;;;;5014038;28;20029;-77
2022/05/02 06:51:43;;;;;;;14.55;7.72;;;10.00;99.90;;;;;;5014392;28;20065;-76
2022/05/02 06:54:33;;;;;;;8.32;5.53;;;10.30;99.90;;;;;;5013232;28;20616;-77
2022/05/02 06:57:10;;;;;;;8.43;5.90;;;10.60;99.90;;;;;;4982642;28;20390;-77
2022/05/02 06:59:38;;;;;;;11.38;6.35;;;10.80;99.90;;;;;;5014141;28;20030;-77
2022/05/02 07:02:26;;;;;;;10.48;7.18;;;11.10;99.90;;;;;;5013425;28;20029;-77
2022/05/02 07:04:56;;;;;;;8.23;7.40;;;10.70;99.90;;;;;;5027717;28;20381;-76
2022/05/02 07:07:24;;;;;;;10.57;7.30;;;11.10;99.90;;;;;;5010331;28;20202;-77
2022/05/02 07:10:03;;;;;;;8.35;6.63;;;11.10;99.90;;;;;;4996655;28;20048;-77
2022/05/02 07:12:31;;;;;;;8.85;6.60;;;11.50;99.90;;;;;;4997513;28;20088;-77
2022/05/02 07:15:12;;;;;;;12.32;10.63;;;11.30;99.90;;;;;;5012628;28;20116;-77
2022/05/02 07:17:51;;;;;;;11.52;9.82;;;11.00;99.90;;;;;;5009310;28;20030;-77
2022/05/02 07:20:27;;;;;;;9.25;8.25;;;11.30;99.90;;;;;;5014104;28;20470;-77
2022/05/02 07:23:14;;;;;;;7.10;6.03;;;11.90;99.90;;;;;;5014531;28;20478;-77
2022/05/02 07:25:44;;;;;;;9.13;6.10;;;12.10;99.90;;;;;;5013816;28;20025;-77
2022/05/02 07:28:28;;;;;;;7.30;5.57;;;12.40;99.90;;;;;;5011192;28;20477;-77
2022/05/02 07:30:57;;;;;;;9.95;7.53;;;12.40;99.90;;;;;;5012163;28;20079;-77
2022/05/02 07:33:34;;;;;;;9.98;7.03;;;12.20;99.90;;;;;;5009447;28;20532;-77
2022/05/02 07:36:02;;;;;;;7.22;5.60;;;12.30;99.90;;;;;;5013724;28;20315;-77
2022/05/02 07:38:33;;;;;;;6.10;4.78;;;12.80;99.90;;;;;;5014824;28;20048;-77
2022/05/02 07:43:56;;;;;;;7.75;6.45;;;13.40;99.90;;;;;;5014599;28;20025;-77
2022/05/02 07:46:26;;;;;;;7.65;6.40;;;13.10;99.90;;;;;;5015464;28;20034;-77
2022/05/02 07:48:52;;;;;;;7.18;4.82;;;13.20;99.90;;;;;;5016110;28;20043;-78
2022/05/02 07:51:19;;;;;;;3.90;3.35;;;13.60;99.90;;;;;;5015461;28;20068;-78
2022/05/02 07:53:46;;;;;;;5.90;3.13;;;14.00;99.90;;;;;;5013635;28;20092;-77
2022/05/02 07:56:13;;;;;;;3.72;2.58;;;14.10;99.90;;;;;;5015519;28;20092;-78
2022/05/02 07:58:45;;;;;;;6.90;4.13;;;14.30;99.90;;;;;;5014876;28;20038;-78
2022/05/02 08:01:12;;;;;;;4.93;3.38;;;14.20;99.90;;;;;;5014118;28;20454;-79
2022/05/02 08:03:37;;;;;;;7.22;5.72;;;14.40;99.90;;;;;;4994428;28;20037;-78
2022/05/02 08:06:26;;;;;;;7.22;4.75;;;14.10;99.90;;;;;;5014698;28;20048;-78
2022/05/02 08:09:03;;;;;;;5.75;4.47;;;14.20;99.90;;;;;;4974000;28;20053;-78
2022/05/02 08:11:49;;;;;;;8.70;7.22;;;14.30;99.90;;;;;;4958929;28;20124;-78
2022/05/02 08:14:24;;;;;;;8.73;4.32;;;14.00;99.90;;;;;;4972502;28;20038;-78
2022/05/02 08:17:03;;;;;;;3.75;2.78;;;14.40;99.90;;;;;;4956825;28;20383;-78
2022/05/02 08:19:58;;;;;;;5.65;3.25;;;14.90;99.90;;;;;;4941490;28;20038;-78
2022/05/02 08:28:35;;;;;;;2.38;1.63;;;15.80;99.90;;;;;;4958195;28;20030;-78
2022/05/02 08:31:18;;;;;;;2.47;1.67;;;16.00;99.90;;;;;;4957630;28;20030;-78
2022/05/02 08:33:57;;;;;;;2.90;2.50;;;16.10;99.90;;;;;;4973190;28;20826;-78
2022/05/02 08:36:49;;;;;;;2.80;2.17;;;16.10;99.90;;;;;;4957666;28;20109;-79
2022/05/02 08:39:24;;;;;;;3.78;2.75;;;16.30;99.90;;;;;;4912950;28;20034;-79
2022/05/02 08:42:11;;;;;;;4.80;3.30;;;16.20;99.90;;;;;;4972371;28;20121;-78
2022/05/02 08:45:07;;;;;;;4.32;3.28;;;15.90;99.90;;;;;;4942949;28;20501;-79
2022/05/02 08:47:48;;;;;;;5.15;3.65;;;16.10;99.90;;;;;;5013736;28;20072;-79
2022/05/02 08:50:36;;;;;;;3.80;3.13;;;16.50;99.90;;;;;;5000243;28;21643;-79
2022/05/02 08:53:07;;;;;;;3.70;2.65;;;16.60;99.90;;;;;;5016536;28;20037;-79
2022/05/02 08:55:48;;;;;;;9.02;5.03;;;16.60;99.90;;;;;;5016387;28;20045;-79
2022/05/02 08:58:46;;;;;;;8.18;5.03;;;15.70;99.90;;;;;;5001838;28;20034;-78
2022/05/02 09:01:23;;;;;;;9.07;5.68;;;15.70;99.90;;;;;;5015416;28;20418;-79
2022/05/02 09:04:21;;;;;;;3.85;2.65;;;15.70;99.90;;;;;;5011205;28;20551;-78
2022/05/02 09:07:05;;;;;;;4.93;3.88;;;16.50;99.90;;;;;;4996727;28;20037;-79
2022/05/02 09:09:42;;;;;;;5.70;2.88;;;16.40;99.90;;;;;;5012608;28;20139;-79
2022/05/02 09:12:27;;;;;;;3.30;2.28;;;16.90;99.90;;;;;;5025880;28;20041;-78
2022/05/02 09:15:04;;;;;;;4.35;2.80;;;17.30;99.90;;;;;;5017990;28;20585;-80
2022/05/02 09:17:49;;;;;;;5.82;3.47;;;17.20;99.90;;;;;;5012912;28;20033;-79
2022/05/02 09:20:45;;;;;;;3.10;2.28;;;16.80;99.90;;;;;;5024765;28;20033;-80
2022/05/02 09:23:29;;;;;;;4.93;3.80;;;17.40;99.90;;;;;;5004748;28;20505;-79
2022/05/02 09:26:11;;;;;;;6.10;2.50;;;17.40;99.90;;;;;;5013351;28;20402;-79
2022/05/02 09:28:53;;;;;;;15.52;4.85;;;17.30;99.90;;;;;;5018269;28;20025;-80
2022/05/02 09:31:51;;;;;;;7.28;3.85;;;16.80;99.90;;;;;;5016788;28;20037;-79
2022/05/02 09:34:25;;;;;;;6.93;5.20;;;17.00;99.90;;;;;;5016859;28;20505;-79
2022/05/02 09:37:11;;;;;;;4.65;3.22;;;16.30;99.90;;;;;;5015961;28;20466;-79
2022/05/02 09:39:52;;;;;;;6.10;4.18;;;17.10;99.90;;;;;;5014246;28;20026;-79
2022/05/02 09:42:24;;;;;;;3.63;2.35;;;17.30;99.90;;;;;;5014936;28;20038;-80
2022/05/02 09:51:01;;;;;;;7.28;5.03;;;17.10;99.90;;;;;;5031978;28;20029;-79
2022/05/02 09:53:30;;;;;;;4.97;3.97;;;16.90;99.90;;;;;;5015302;28;20033;-81
2022/05/02 09:56:40;;;;;;;6.53;3.88;;;17.10;99.90;;;;;;4997263;28;20137;-80
2022/05/02 09:59:08;;;;;;;8.50;5.18;;;17.30;99.90;;;;;;4959336;28;20046;-80
2022/05/02 10:01:34;;;;;;;7.30;5.15;;;17.10;99.90;;;;;;4974631;28;20045;-80
2022/05/02 10:04:14;;;;;;;3.85;2.95;;;17.10;99.90;;;;;;4974366;28;20038;-79
2022/05/02 10:06:46;;;;;;;4.05;2.35;;;17.70;99.90;;;;;;4975840;28;20038;-80
2022/05/02 10:09:29;;;;;;;5.13;4.05;;;18.10;99.90;;;;;;4936425;28;20407;-80
2022/05/02 10:12:29;;;;;;;6.80;4.47;;;17.70;99.90;;;;;;4959420;28;20043;-79
2022/05/02 10:15:22;;;;;;;5.50;3.58;;;17.90;99.90;;;;;;4958526;28;20132;-80
2022/05/02 10:18:01;;;;;;;3.20;2.38;;;17.60;99.90;;;;;;4968975;28;20394;-80
2022/05/02 10:21:09;;;;;;;6.25;2.10;;;18.60;99.90;;;;;;4954069;28;20094;-79
2022/05/02 10:23:45;;;;;;;3.97;1.65;;;19.10;99.90;;;;;;4942910;28;20041;-80
2022/05/02 10:26:20;;;;;;;4.03;2.42;;;19.10;99.90;;;;;;4960350;28;20042;-80
2022/05/02 10:29:18;;;;;;;4.78;3.55;;;18.60;99.90;;;;;;4958568;28;20067;-80
2022/05/02 10:31:50;;;;;;;3.35;3.05;;;18.80;99.90;;;;;;4975994;28;20487;-80
2022/05/02 10:34:19;;;;;;;9.43;5.63;;;18.30;99.90;;;;;;5011615;28;20037;-80
2022/05/02 10:36:50;;;;;;;5.38;2.90;;;17.70;99.90;;;;;;5016681;28;20516;-79
2022/05/02 10:39:28;;;;;;;3.70;2.63;;;18.60;99.90;;;;;;5014486;28;20045;-80
2022/05/02 10:41:58;;;;;;;3.70;2.20;;;19.30;99.90;;;;;;5015916;28;20553;-80
2022/05/02 10:44:34;;;;;;;2.65;2.08;;;19.20;99.90;;;;;;5016754;28;20120;-80
2022/05/02 10:47:03;;;;;;;3.40;1.70;;;19.40;99.90;;;;;;5016143;28;20207;-80
2022/05/02 10:49:39;;;;;;;6.80;4.15;;;19.30;99.90;;;;;;5018077;28;20098;-80
2022/05/02 10:52:20;;;;;;;3.20;2.80;;;19.20;99.90;;;;;;5016397;28;20038;-80
2022/05/02 10:54:55;;;;;;;3.05;2.40;;;19.00;99.90;;;;;;5011523;28;20033;-79
2022/05/02 10:57:30;;;;;;;2.83;2.00;;;19.20;99.90;;;;;;5015900;28;20033;-80
2022/05/02 11:00:04;;;;;;;2.97;2.10;;;19.40;99.90;;;;;;4989432;28;20540;-79
2022/05/02 11:02:58;;;;;;;3.17;1.63;;;19.60;99.90;;;;;;5012417;28;20398;-79
2022/05/02 11:05:40;;;;;;;5.22;4.25;;;19.60;99.90;;;;;;4975461;28;20078;-79
2022/05/02 11:08:12;;;;;;;5.43;4.50;;;19.20;99.90;;;;;;5014945;28;20029;-79
2022/05/02 11:10:46;;;;;;;2.63;2.42;;;18.80;99.90;;;;;;4994905;28;20032;-79
2022/05/02 11:13:33;;;;;;;3.50;2.42;;;19.30;99.90;;;;;;5012882;28;20046;-79
2022/05/02 11:16:16;;;;;;;3.30;2.13;;;19.50;99.90;;;;;;4997038;28;20034;-80
2022/05/02 11:22:17;;;;;;;4.10;3.33;;;19.50;99.90;;;;;;5002001;28;20049;-79
2022/05/02 11:25:11;;;;;;;3.40;1.55;;;19.40;99.90;;;;;;5003527;28;20029;-79
2022/05/02 11:28:04;;;;;;;2.50;1.83;;;20.70;99.90;;;;;;5007798;28;20052;-80
2022/05/02 11:30:41;;;;;;;2.80;1.73;;;20.30;99.90;;;;;;5031294;28;20051;-79
2022/05/02 11:33:30;;;;;;;3.03;1.90;;;20.00;99.90;;;;;;5013163;28;20525;-80
2022/05/02 11:36:00;;;;;;;3.30;2.10;;;20.00;99.90;;;;;;5010536;28;20445;-80
2022/05/02 11:38:38;;;;;;;4.03;2.08;;;19.90;99.90;;;;;;4997205;28;20449;-80
2022/05/02 11:41:16;;;;;;;4.53;2.67;;;20.20;99.90;;;;;;5012955;28;20040;-80
2022/05/02 11:43:44;;;;;;;2.42;1.85;;;20.00;99.90;;;;;;5013554;28;20116;-80
2022/05/02 11:46:26;;;;;;;7.28;4.40;;;20.00;99.90;;;;;;5011817;28;20045;-80
2022/05/02 11:49:10;;;;;;;7.70;3.50;;;19.30;99.90;;;;;;5013299;28;20125;-80
2022/05/02 11:51:46;;;;;;;6.00;2.90;;;19.10;99.90;;;;;;5011851;28;20542;-80
2022/05/02 11:54:21;;;;;;;2.13;1.50;;;19.40;99.90;;;;;;4992490;28;20033;-80
2022/05/02 11:56:55;;;;;;;4.88;4.32;;;20.00;99.90;;;;;;5013352;28;20045;-79
2022/05/02 11:59:25;;;;;;;6.45;4.80;;;18.60;99.90;;;;;;5014101;28;20035;-79
2022/05/02 12:02:03;;;;;;;3.90;3.42;;;18.70;99.90;;;;;;5009179;28;20482;-79
2022/05/02 12:04:40;;;;;;;3.58;1.88;;;19.40;99.90;;;;;;5012617;28;20120;-79
2022/05/02 12:07:13;;;;;;;3.40;1.88;;;19.90;99.90;;;;;;5015166;28;20030;-80
2022/05/02 12:09:40;;;;;;;3.17;1.65;;;20.10;99.90;;;;;;5011798;28;20030;-80
2022/05/02 12:12:07;;;;;;;3.22;1.40;;;19.30;99.90;;;;;;5009713;28;20046;-78
2022/05/02 12:14:33;;;;;;;4.85;1.90;;;19.70;99.90;;;;;;4998126;28;20470;-79
2022/05/02 12:17:10;;;;;;;4.40;1.75;;;20.20;99.90;;;;;;4997575;28;20481;-80
2022/05/02 12:19:38;;;;;;;2.88;1.88;;;20.10;99.90;;;;;;5015734;28;20025;-80
2022/05/02 12:22:08;;;;;;;2.33;1.33;;;20.20;99.90;;;;;;5015251;28;20541;-79
2022/05/02 12:24:38;;;;;;;2.72;2.20;;;20.50;99.90;;;;;;5026010;28;20029;-80
2022/05/02 12:27:08;;;;;;;4.50;3.50;;;20.10;99.90;;;;;;5018867;28;20034;-80
2022/05/02 12:29:36;;;;;;;4.82;3.92;;;19.80;99.90;;;;;;5019271;28;20046;-80
2022/05/02 12:32:07;;;;;;;7.07;4.13;;;19.70;99.90;;;;;;5018532;28;20465;-79
2022/05/02 12:34:46;;;;;;;5.03;4.03;;;19.30;99.90;;;;;;5016201;28;20121;-80
2022/05/02 12:37:32;;;;;;;2.28;1.75;;;19.00;99.90;;;;;;5013609;28;20044;-79
2022/05/02 12:40:11;;;;;;;4.15;3.60;;;19.80;99.90;;;;;;5014789;28;20552;-80
2022/05/02 12:42:45;;;;;;;6.20;4.93;;;19.30;99.90;;;;;;5014817;28;20041;-79
2022/05/02 12:45:14;;;;;;;5.15;2.80;;;19.20;99.90;;;;;;5016910;28;20062;-79
2022/05/02 12:47:53;;;;;;;4.28;3.88;;;19.10;99.90;;;;;;5011478;28;20270;-79
2022/05/02 12:50:21;;;;;;;7.55;6.55;;;18.80;99.90;;;;;;5000315;28;20045;-79
2022/05/02 12:52:54;;;;;;;5.32;4.70;;;18.30;99.90;;;;;;5016862;28;20025;-79
2022/05/02 12:55:22;;;;;;;3.33;2.38;;;18.10;99.90;;;;;;5014223;28;20135;-79
2022/05/02 13:00:39;;;;;;;3.92;3.53;;;19.30;99.90;;;;;;5016473;28;20095;-79
2022/05/02 13:03:11;;;;;;;7.40;3.70;;;19.10;99.90;;;;;;5015665;28;20044;-80
2022/05/02 13:05:41;;;;;;;5.40;2.45;;;19.10;99.90;;;;;;5000113;28;20048;-80
2022/05/02 13:08:08;;;;;;;2.78;2.47;;;19.50;99.90;;;;;;5015866;28;20030;-81
2022/05/02 13:10:34;;;;;;;4.65;2.20;;;19.50;99.90;;;;;;5015693;28;20033;-79
2022/05/02 13:13:20;;;;;;;3.78;2.83;;;19.50;99.90;;;;;;5030458;28;20378;-79
2022/05/02 13:15:51;;;;;;;2.28;0.98;;;19.60;99.90;;;;;;5009992;28;20100;-80
2022/05/02 13:18:18;;;;;;;4.88;4.38;;;19.30;99.90;;;;;;5017064;28;20115;-79
2022/05/02 13:20:58;;;;;;;5.93;5.28;;;18.10;99.90;;;;;;5001407;28;20064;-79
2022/05/02 13:23:36;;;;;;;4.28;3.25;;;17.60;99.90;;;;;;5017008;28;20236;-79
2022/05/02 13:26:26;;;;;;;7.07;4.47;;;17.80;99.90;;;;;;5016817;28;20441;-78
2022/05/02 13:29:19;;;;;;;6.57;4.82;;;17.50;99.90;;;;;;5018051;28;20116;-78
2022/05/02 13:31:53;;;;;;;4.28;2.30;;;17.40;99.90;;;;;;5019030;28;20037;-79
2022/05/02 13:34:29;;;;;;;6.97;4.68;;;17.80;99.90;;;;;;5017735;28;20120;-78
2022/05/02 13:37:15;;;;;;;5.60;4.40;;;18.50;99.90;;;;;;5017638;28;20601;-79
2022/05/02 13:40:16;;;;;;;5.97;4.28;;;18.40;99.90;;;;;;4985087;28;20080;-78
2022/05/02 13:42:57;;;;;;;7.50;3.85;;;18.60;99.90;;;;;;5009469;28;20140;-80
2022/05/02 13:45:31;;;;;;;4.40;2.55;;;18.60;99.90;;;;;;5017429;28;20103;-79
2022/05/02 13:48:09;;;;;;;5.38;3.08;;;19.30;99.90;;;;;;5016668;28;20033;-79
2022/05/02 13:50:57;;;;;;;5.30;2.88;;;19.00;99.90;;;;;;5016292;28;20035;-79
2022/05/02 13:53:35;;;;;;;2.83;2.22;;;18.80;99.90;;;;;;5016708;28;20573;-79
2022/05/02 13:56:11;;;;;;;7.28;3.80;;;18.50;99.90;;;;;;4992679;28;20045;-78
2022/05/02 13:59:00;;;;;;;3.60;2.08;;;18.30;99.90;;;;;;5015330;28;20377;-79